createdAt,value
2023-02-02T00:00:28.474Z,6.49
2023-02-02T00:02:55.246Z,6.50
2023-02-02T00:05:23.360Z,6.48
2023-02-02T00:07:56.991Z,6.48
2023-02-02T00:10:35.800Z,6.48
2023-02-02T00:13:02.663Z,6.47
2023-02-02T00:18:18.494Z,6.45
2023-02-02T00:20:47.860Z,6.43
2023-02-02T00:23:14.854Z,6.42
2023-02-02T00:25:50.347Z,6.44
2023-02-02T00:28:18.159Z,6.44
2023-02-02T00:31:00.417Z,6.42
2023-02-02T00:33:56.811Z,6.39
2023-02-02T00:36:24.020Z,6.40
2023-02-02T00:39:41.776Z,6.40
2023-02-02T00:42:27.323Z,6.40
2023-02-02T00:45:22.225Z,6.38
2023-02-02T00:47:49.892Z,6.38
2023-02-02T00:50:21.111Z,6.37
2023-02-02T00:52:49.087Z,6.38
2023-02-02T00:55:16.949Z,6.40
2023-02-02T00:57:46.979Z,6.42
2023-02-02T01:00:26.797Z,6.40
2023-02-02T01:02:55.639Z,6.38
2023-02-02T01:05:23.476Z,6.37
2023-02-02T01:07:50.531Z,6.37
2023-02-02T01:10:19.902Z,6.36
2023-02-02T01:12:46.635Z,6.35
2023-02-02T01:15:13.893Z,6.34
2023-02-02T01:18:08.160Z,6.32
2023-02-02T01:20:34.994Z,6.29
2023-02-02T01:23:05.013Z,6.27
2023-02-02T01:25:34.804Z,6.24
2023-02-02T01:28:49.385Z,6.22
2023-02-02T01:31:30.167Z,6.20
2023-02-02T01:33:57.136Z,6.17
2023-02-02T01:36:35.808Z,6.18
2023-02-02T01:39:03.106Z,6.16
2023-02-02T01:41:30.631Z,6.15
2023-02-02T01:44:06.318Z,6.15
2023-02-02T01:49:29.094Z,6.12
2023-02-02T01:52:42.232Z,6.13
2023-02-02T01:55:38.769Z,6.12
2023-02-02T01:58:22.537Z,6.09
2023-02-02T02:00:52.481Z,6.09
2023-02-02T02:03:26.721Z,6.09
2023-02-02T02:06:48.463Z,6.06
2023-02-02T02:09:15.418Z,6.05
2023-02-02T02:11:59.088Z,6.05
2023-02-02T02:14:51.819Z,6.05
2023-02-02T02:18:04.405Z,6.05
2023-02-02T02:21:41.350Z,6.05
2023-02-02T02:24:57.642Z,6.06
2023-02-02T02:27:58.808Z,6.04
2023-02-02T02:30:56.368Z,6.04
2023-02-02T02:33:35.859Z,6.03
2023-02-02T02:36:48.294Z,6.02
2023-02-02T02:39:25.559Z,6.02
2023-02-02T02:41:57.761Z,6.01
2023-02-02T02:44:26.696Z,6.00
2023-02-02T02:46:56.497Z,5.98
2023-02-02T02:49:32.364Z,5.99
2023-02-02T02:52:01.321Z,5.97
2023-02-02T02:54:41.420Z,5.96
2023-02-02T02:57:38.071Z,5.97
2023-02-02T03:00:57.628Z,5.96
2023-02-02T03:03:37.612Z,5.98
2023-02-02T03:06:23.377Z,5.98
2023-02-02T03:09:10.935Z,5.99
2023-02-02T03:11:40.101Z,6.02
2023-02-02T03:14:09.803Z,6.02
2023-02-02T03:16:40.001Z,6.03
2023-02-02T03:19:31.052Z,6.05
2023-02-02T03:24:39.078Z,6.05
2023-02-02T03:27:05.850Z,6.07
2023-02-02T03:29:49.020Z,6.10
2023-02-02T03:32:15.724Z,6.12
2023-02-02T03:35:02.752Z,6.13
2023-02-02T03:37:29.428Z,6.15
2023-02-02T03:40:21.963Z,6.17
2023-02-02T03:42:49.086Z,6.17
2023-02-02T03:45:15.930Z,6.20
2023-02-02T03:47:42.649Z,6.21
2023-02-02T03:50:10.126Z,6.20
2023-02-02T03:52:36.884Z,6.20
2023-02-02T03:55:04.021Z,6.20
2023-02-02T03:57:39.222Z,6.21
2023-02-02T04:00:06.760Z,6.22
2023-02-02T04:02:38.980Z,6.25
2023-02-02T04:05:30.711Z,6.25
2023-02-02T04:07:57.412Z,6.25
2023-02-02T04:10:24.039Z,6.25
2023-02-02T04:12:51.004Z,6.26
2023-02-02T04:15:18.023Z,6.27
2023-02-02T04:17:50.643Z,6.30
2023-02-02T04:20:17.595Z,6.32
2023-02-02T04:23:02.624Z,6.33
2023-02-02T04:25:29.360Z,6.35
2023-02-02T04:27:56.023Z,6.35
2023-02-02T04:30:22.830Z,6.35
2023-02-02T04:32:58.304Z,6.36
2023-02-02T04:35:33.829Z,6.37
2023-02-02T04:38:00.595Z,6.36
2023-02-02T04:40:53.029Z,6.39
2023-02-02T04:43:19.794Z,6.37
2023-02-02T04:45:57.418Z,6.38
2023-02-02T04:51:14.584Z,6.43
2023-02-02T04:53:46.448Z,6.45
2023-02-02T04:57:24.051Z,6.47
2023-02-02T04:59:57.617Z,6.48
2023-02-02T05:02:24.820Z,6.50
2023-02-02T05:05:50.644Z,6.52
2023-02-02T05:08:17.458Z,6.53
2023-02-02T05:14:07.749Z,6.56
2023-02-02T05:16:34.774Z,6.55
2023-02-02T05:19:51.702Z,6.56
2023-02-02T05:22:30.856Z,6.56
2023-02-02T05:24:58.909Z,6.56
2023-02-02T05:30:49.278Z,6.58
2023-02-02T05:38:53.902Z,6.58
2023-02-02T05:42:31.848Z,6.56
2023-02-02T05:45:04.410Z,6.56
2023-02-02T05:47:43.346Z,6.56
2023-02-02T05:50:58.279Z,6.57
2023-02-02T05:53:31.447Z,6.58
2023-02-02T05:55:58.607Z,6.56
2023-02-02T05:58:44.522Z,6.55
2023-02-02T06:01:11.572Z,6.54
2023-02-02T06:03:38.436Z,6.55
2023-02-02T06:06:55.469Z,6.57
2023-02-02T06:09:25.308Z,6.55
2023-02-02T06:11:52.044Z,6.53
2023-02-02T06:14:33.360Z,6.52
2023-02-02T06:17:02.651Z,6.52
2023-02-02T06:19:34.249Z,6.51
2023-02-02T06:22:09.322Z,6.49
2023-02-02T06:24:35.984Z,6.49
2023-02-02T06:27:05.888Z,6.48
2023-02-02T06:29:32.537Z,6.46
2023-02-02T06:35:05.700Z,6.46
2023-02-02T06:37:34.596Z,6.44
2023-02-02T06:40:01.445Z,6.44
2023-02-02T06:42:32.554Z,6.43
2023-02-02T06:45:04.572Z,6.42
2023-02-02T06:47:34.217Z,6.41
2023-02-02T06:50:02.162Z,6.42
2023-02-02T06:52:32.092Z,6.41
2023-02-02T06:54:58.665Z,6.42
2023-02-02T06:57:34.078Z,6.41
2023-02-02T07:00:06.208Z,6.40
2023-02-02T07:02:35.956Z,6.39
2023-02-02T07:05:02.998Z,6.39
2023-02-02T07:07:34.224Z,6.39
2023-02-02T07:10:03.838Z,6.40
2023-02-02T07:12:33.640Z,6.39
2023-02-02T07:15:00.370Z,6.38
2023-02-02T07:17:26.992Z,6.37
2023-02-02T07:20:28.292Z,6.36
2023-02-02T07:23:15.729Z,6.37
2023-02-02T07:26:08.807Z,6.36
2023-02-02T07:28:36.451Z,6.35
2023-02-02T07:31:14.385Z,6.35
2023-02-02T07:34:29.222Z,6.35
2023-02-02T07:37:35.437Z,6.36
2023-02-02T07:40:29.056Z,6.36
2023-02-02T07:43:38.658Z,6.37
2023-02-02T07:46:39.335Z,6.39
2023-02-02T07:49:47.495Z,6.40
2023-02-02T07:52:29.456Z,6.40
2023-02-02T07:55:09.061Z,6.43
2023-02-02T07:58:30.598Z,6.45
2023-02-02T08:01:03.635Z,6.46
2023-02-02T08:03:30.534Z,6.47
2023-02-02T08:05:58.636Z,6.46
2023-02-02T08:08:25.645Z,6.46
2023-02-02T08:10:53.709Z,6.49
2023-02-02T08:13:20.611Z,6.51
2023-02-02T08:18:28.030Z,6.56
2023-02-02T08:21:01.929Z,6.59
2023-02-02T08:23:28.727Z,6.60
2023-02-02T08:26:20.047Z,6.61
2023-02-02T08:28:52.529Z,6.61
2023-02-02T08:31:45.628Z,6.61
2023-02-02T08:34:14.297Z,6.61
2023-02-02T08:42:05.508Z,6.68
2023-02-02T08:44:44.975Z,6.69
2023-02-02T08:47:32.453Z,6.74
2023-02-02T08:50:27.940Z,6.80
2023-02-02T08:52:54.913Z,6.81
2023-02-02T08:55:36.542Z,6.84
2023-02-02T08:58:05.349Z,6.87
2023-02-02T09:00:32.290Z,6.93
2023-02-02T09:03:33.167Z,7.02
2023-02-02T09:06:05.374Z,7.20
2023-02-02T09:08:33.615Z,7.30
2023-02-02T09:11:12.022Z,7.32
2023-02-02T09:13:40.206Z,7.37
2023-02-02T09:16:09.190Z,7.41
2023-02-02T09:19:47.136Z,7.51
2023-02-02T09:23:03.697Z,7.59
2023-02-02T09:25:28.619Z,7.63
2023-02-02T09:28:21.472Z,7.68
2023-02-02T09:30:48.339Z,7.70
2023-02-02T09:34:05.760Z,7.72
2023-02-02T09:40:25.917Z,7.74
2023-02-02T09:51:56.171Z,7.68
2023-02-02T09:55:27.207Z,7.66
2023-02-02T09:58:21.999Z,7.62
2023-02-02T10:04:38.118Z,7.56
2023-02-02T10:07:29.144Z,7.62
2023-02-02T10:10:32.367Z,7.66
2023-02-02T10:13:34.122Z,7.67
2023-02-02T10:16:25.854Z,7.65
2023-02-02T10:26:37.128Z,7.67
2023-02-02T10:29:25.598Z,7.71
2023-02-02T10:32:31.222Z,7.76
2023-02-02T10:35:13.180Z,7.84
2023-02-02T10:38:29.520Z,7.87
2023-02-02T10:41:48.607Z,7.89
2023-02-02T10:44:48.894Z,7.90
2023-02-02T10:47:59.835Z,7.93
2023-02-02T10:50:29.448Z,7.97
2023-02-02T10:53:01.675Z,7.96
2023-02-02T10:55:48.325Z,7.95
2023-02-02T10:58:33.761Z,7.94
2023-02-02T11:01:22.868Z,7.96
2023-02-02T11:04:09.702Z,7.96
2023-02-02T11:06:52.311Z,7.96
2023-02-02T11:09:36.520Z,7.95
2023-02-02T11:12:35.419Z,7.95
2023-02-02T11:15:07.263Z,7.98
2023-02-02T11:17:34.937Z,7.99
2023-02-02T11:20:21.157Z,7.98
2023-02-02T11:23:01.233Z,7.99
2023-02-02T11:25:33.916Z,8.02
2023-02-02T11:28:27.307Z,8.05
2023-02-02T11:30:57.309Z,8.02
2023-02-02T11:33:33.712Z,8.06
2023-02-02T11:36:05.745Z,8.08
2023-02-02T11:38:36.087Z,8.09
2023-02-02T11:41:22.851Z,8.09
2023-02-02T11:43:55.279Z,8.08
2023-02-02T11:46:50.609Z,8.07
2023-02-02T11:49:20.257Z,8.09
2023-02-02T11:51:58.945Z,8.15
2023-02-02T11:54:32.011Z,8.18
2023-02-02T11:57:01.571Z,8.17
2023-02-02T11:59:42.259Z,8.15
2023-02-02T12:02:34.979Z,8.15
2023-02-02T12:09:51.001Z,8.12
2023-02-02T12:13:28.558Z,8.14
2023-02-02T12:20:23.846Z,8.09
2023-02-02T12:23:34.729Z,8.04
2023-02-02T12:26:38.145Z,8.05
2023-02-02T12:29:25.935Z,8.04
2023-02-02T12:32:24.890Z,8.04
2023-02-02T12:39:27.086Z,8.03
2023-02-02T12:43:20.156Z,8.01
2023-02-02T12:46:21.481Z,8.01
2023-02-02T12:49:17.120Z,8.01
2023-02-02T12:52:24.666Z,8.02
2023-02-02T12:55:22.188Z,8.01
2023-02-02T12:57:56.717Z,7.96
2023-02-02T13:01:32.317Z,7.94
2023-02-02T13:05:23.397Z,7.92
2023-02-02T13:08:43.499Z,7.87
2023-02-02T13:11:47.421Z,7.87
2023-02-02T13:18:31.864Z,7.81
2023-02-02T13:24:47.368Z,7.82
2023-02-02T13:30:48.074Z,7.77
2023-02-02T13:33:37.554Z,7.75
2023-02-02T13:36:39.102Z,7.74
2023-02-02T13:50:52.782Z,7.70
2023-02-02T13:53:39.646Z,7.74
2023-02-02T13:59:58.663Z,7.78
2023-02-02T14:03:12.309Z,7.79
2023-02-02T14:05:41.400Z,7.77
2023-02-02T14:09:13.550Z,7.79
2023-02-02T14:14:46.582Z,7.78
2023-02-02T14:17:17.589Z,7.77
2023-02-02T14:19:50.734Z,7.78
2023-02-02T14:23:07.626Z,7.79
2023-02-02T14:25:36.728Z,7.77
2023-02-02T14:28:48.620Z,7.74
2023-02-02T14:31:46.670Z,7.72
2023-02-02T14:37:52.794Z,7.74
2023-02-02T14:41:06.600Z,7.70
2023-02-02T14:44:16.048Z,7.69
2023-02-02T14:47:27.828Z,7.69
2023-02-02T14:53:53.900Z,7.60
2023-02-02T14:57:17.863Z,7.59
2023-02-02T14:59:49.891Z,7.56
2023-02-02T15:03:32.933Z,7.56
2023-02-02T15:06:53.199Z,7.52
2023-02-02T15:09:28.509Z,7.53
2023-02-02T15:12:08.705Z,7.52
2023-02-02T15:15:38.208Z,7.51
2023-02-02T15:19:09.466Z,7.53
2023-02-02T15:22:45.900Z,7.51
2023-02-02T15:25:24.628Z,7.50
2023-02-02T15:28:22.914Z,7.50
2023-02-02T15:31:42.908Z,7.52
2023-02-02T15:35:14.640Z,7.52
2023-02-02T15:37:55.350Z,7.53
2023-02-02T15:40:25.847Z,7.54
2023-02-02T15:43:29.614Z,7.55
2023-02-02T15:46:04.160Z,7.56
2023-02-02T15:48:32.500Z,7.54
2023-02-02T15:51:04.815Z,7.54
2023-02-02T15:53:57.978Z,7.53
2023-02-02T15:56:24.560Z,7.54
2023-02-02T15:59:19.809Z,7.53
2023-02-02T16:04:37.662Z,7.50
2023-02-02T16:07:12.470Z,7.49
2023-02-02T16:09:48.404Z,7.47
2023-02-02T16:12:37.575Z,7.47
2023-02-02T16:15:32.462Z,7.49
2023-02-02T16:21:29.811Z,7.46
2023-02-02T16:41:49.250Z,7.39
2023-02-02T16:44:30.233Z,7.38
2023-02-02T16:47:00.184Z,7.37
2023-02-02T16:50:28.915Z,7.38
2023-02-02T16:53:01.590Z,7.35
2023-02-02T16:55:55.586Z,7.34
2023-02-02T17:06:51.874Z,7.31
2023-02-02T17:18:34.819Z,7.27
2023-02-02T17:31:33.979Z,7.27
2023-02-02T17:34:22.770Z,7.27
2023-02-02T17:47:37.579Z,7.29
2023-02-02T17:50:06.219Z,7.28
2023-02-02T17:52:49.809Z,7.28
2023-02-02T18:22:14.883Z,7.32
2023-02-02T19:34:21.664Z,6.95
2023-02-02T19:37:41.959Z,6.93
2023-02-02T19:40:33.758Z,6.93
2023-02-02T19:47:06.100Z,6.91
2023-02-02T19:50:00.987Z,6.89
2023-02-02T19:52:48.748Z,6.88
2023-02-02T19:55:36.126Z,6.87
2023-02-02T19:58:39.082Z,6.88
2023-02-02T20:01:27.625Z,6.87
2023-02-02T20:04:37.550Z,6.85
2023-02-02T20:08:33.528Z,6.86
2023-02-02T20:11:49.306Z,6.84
2023-02-02T20:22:40.054Z,6.87
2023-02-02T20:25:59.877Z,6.89
2023-02-02T20:28:50.243Z,6.90
2023-02-02T20:31:42.808Z,6.92
2023-02-02T20:34:56.608Z,6.94
2023-02-02T20:40:56.721Z,6.97
2023-02-02T20:52:11.039Z,6.99
2023-02-02T20:55:08.613Z,6.98
2023-02-02T21:01:50.706Z,7.07
2023-02-02T21:04:48.454Z,7.13
2023-02-02T21:16:06.143Z,7.19
2023-02-02T21:22:36.528Z,7.24
2023-02-02T21:25:55.891Z,7.28
2023-02-02T21:28:53.054Z,7.28
2023-02-02T21:32:11.687Z,7.31
2023-02-02T21:34:41.877Z,7.32
2023-02-02T21:37:29.526Z,7.35
2023-02-02T21:41:07.980Z,7.36
2023-02-02T21:44:16.046Z,7.37
2023-02-02T21:46:55.480Z,7.38
2023-02-02T21:53:24.262Z,7.40
2023-02-02T22:04:12.012Z,7.46
2023-02-02T23:07:18.493Z,7.63
2023-02-02T23:26:29.989Z,7.52
2023-02-02T23:34:15.192Z,7.53
